sensor_id;sensor_type;location;lat;lon;timestamp;pressure;altitude;pressure_sealevel;temperature
70969;BMP280;58630;43.022;25.100;2023-07-09T00:00:03;;;;24.90
70969;BMP280;58630;43.022;25.100;2023-07-09T00:02:29;;;;24.80
70969;BMP280;58630;43.022;25.100;2023-07-09T00:04:55;;;;24.80
70969;BMP280;58630;43.022;25.100;2023-07-09T00:07:30;;;;24.80
70969;BMP280;58630;43.022;25.100;2023-07-09T00:09:56;;;;24.70
70969;BMP280;58630;43.022;25.100;2023-07-09T00:12:22;;;;24.70
70969;BMP280;58630;43.022;25.100;2023-07-09T00:14:48;;;;24.70
70969;BMP280;58630;43.022;25.100;2023-07-09T00:17:25;;;;24.70
70969;BMP280;58630;43.022;25.100;2023-07-09T00:19:51;;;;24.70
70969;BMP280;58630;43.022;25.100;2023-07-09T00:22:17;;;;24.60
70969;BMP280;58630;43.022;25.100;2023-07-09T00:24:44;;;;24.60
70969;BMP280;58630;43.022;25.100;2023-07-09T00:27:13;;;;24.60
70969;BMP280;58630;43.022;25.100;2023-07-09T00:29:40;;;;24.60
70969;BMP280;58630;43.022;25.100;2023-07-09T00:32:16;;;;24.60
70969;BMP280;58630;43.022;25.100;2023-07-09T00:34:42;;;;24.60
70969;BMP280;58630;43.022;25.100;2023-07-09T00:37:14;;;;24.70
70969;BMP280;58630;43.022;25.100;2023-07-09T00:39:40;;;;24.70
70969;BMP280;58630;43.022;25.100;2023-07-09T00:44:40;;;;24.70
70969;BMP280;58630;43.022;25.100;2023-07-09T00:47:17;;;;24.70
70969;BMP280;58630;43.022;25.100;2023-07-09T00:49:43;;;;24.70
70969;BMP280;58630;43.022;25.100;2023-07-09T00:54:45;;;;24.70
70969;BMP280;58630;43.022;25.100;2023-07-09T00:57:13;;;;24.60
70969;BMP280;58630;43.022;25.100;2023-07-09T00:59:42;;;;24.60
70969;BMP280;58630;43.022;25.100;2023-07-09T01:02:08;;;;24.60
70969;BMP280;58630;43.022;25.100;2023-07-09T01:04:35;;;;24.60
70969;BMP280;58630;43.022;25.100;2023-07-09T01:07:01;;;;24.60
70969;BMP280;58630;43.022;25.100;2023-07-09T01:09:27;;;;24.60
70969;BMP280;58630;43.022;25.100;2023-07-09T01:11:52;;;;24.60
70969;BMP280;58630;43.022;25.100;2023-07-09T01:14:21;;;;24.50
70969;BMP280;58630;43.022;25.100;2023-07-09T01:16:50;;;;24.50
70969;BMP280;58630;43.022;25.100;2023-07-09T01:19:23;;;;24.50
70969;BMP280;58630;43.022;25.100;2023-07-09T01:22:00;;;;24.50
70969;BMP280;58630;43.022;25.100;2023-07-09T01:27:10;;;;24.50
70969;BMP280;58630;43.022;25.100;2023-07-09T01:29:36;;;;24.50
70969;BMP280;58630;43.022;25.100;2023-07-09T01:32:02;;;;24.50
70969;BMP280;58630;43.022;25.100;2023-07-09T01:34:28;;;;24.50
70969;BMP280;58630;43.022;25.100;2023-07-09T01:36:55;;;;24.40
70969;BMP280;58630;43.022;25.100;2023-07-09T01:39:21;;;;24.40
70969;BMP280;58630;43.022;25.100;2023-07-09T01:41:47;;;;24.40
70969;BMP280;58630;43.022;25.100;2023-07-09T01:44:12;;;;24.30
70969;BMP280;58630;43.022;25.100;2023-07-09T01:46:39;;;;24.30
70969;BMP280;58630;43.022;25.100;2023-07-09T01:49:04;;;;24.30
70969;BMP280;58630;43.022;25.100;2023-07-09T01:51:32;;;;24.30
70969;BMP280;58630;43.022;25.100;2023-07-09T01:53:58;;;;24.30
70969;BMP280;58630;43.022;25.100;2023-07-09T01:56:25;;;;24.30
70969;BMP280;58630;43.022;25.100;2023-07-09T01:58:50;;;;24.20
70969;BMP280;58630;43.022;25.100;2023-07-09T02:01:16;;;;24.20
70969;BMP280;58630;43.022;25.100;2023-07-09T02:03:45;;;;24.20
70969;BMP280;58630;43.022;25.100;2023-07-09T02:06:11;;;;24.10
70969;BMP280;58630;43.022;25.100;2023-07-09T02:08:37;;;;24.10
70969;BMP280;58630;43.022;25.100;2023-07-09T02:11:03;;;;24.10
70969;BMP280;58630;43.022;25.100;2023-07-09T02:13:29;;;;24.00
70969;BMP280;58630;43.022;25.100;2023-07-09T02:15:55;;;;24.00
70969;BMP280;58630;43.022;25.100;2023-07-09T02:18:20;;;;24.00
70969;BMP280;58630;43.022;25.100;2023-07-09T02:20:46;;;;24.00
70969;BMP280;58630;43.022;25.100;2023-07-09T02:23:12;;;;24.00
70969;BMP280;58630;43.022;25.100;2023-07-09T02:25:37;;;;24.10
70969;BMP280;58630;43.022;25.100;2023-07-09T02:28:03;;;;24.10
70969;BMP280;58630;43.022;25.100;2023-07-09T02:30:29;;;;24.10
70969;BMP280;58630;43.022;25.100;2023-07-09T02:32:54;;;;24.20
70969;BMP280;58630;43.022;25.100;2023-07-09T02:35:20;;;;24.10
70969;BMP280;58630;43.022;25.100;2023-07-09T02:37:46;;;;24.10
70969;BMP280;58630;43.022;25.100;2023-07-09T02:40:12;;;;24.10
70969;BMP280;58630;43.022;25.100;2023-07-09T02:42:37;;;;24.00
70969;BMP280;58630;43.022;25.100;2023-07-09T02:45:03;;;;24.00
70969;BMP280;58630;43.022;25.100;2023-07-09T02:47:29;;;;24.00
70969;BMP280;58630;43.022;25.100;2023-07-09T02:49:54;;;;24.00
70969;BMP280;58630;43.022;25.100;2023-07-09T02:52:20;;;;24.00
70969;BMP280;58630;43.022;25.100;2023-07-09T02:54:45;;;;23.90
70969;BMP280;58630;43.022;25.100;2023-07-09T02:57:11;;;;23.90
70969;BMP280;58630;43.022;25.100;2023-07-09T02:59:37;;;;23.80
70969;BMP280;58630;43.022;25.100;2023-07-09T03:02:02;;;;23.80
70969;BMP280;58630;43.022;25.100;2023-07-09T03:04:29;;;;23.80
70969;BMP280;58630;43.022;25.100;2023-07-09T03:06:56;;;;23.70
70969;BMP280;58630;43.022;25.100;2023-07-09T03:09:22;;;;23.70
70969;BMP280;58630;43.022;25.100;2023-07-09T03:11:48;;;;23.60
70969;BMP280;58630;43.022;25.100;2023-07-09T03:14:14;;;;23.60
70969;BMP280;58630;43.022;25.100;2023-07-09T03:16:39;;;;23.60
70969;BMP280;58630;43.022;25.100;2023-07-09T03:19:05;;;;23.60
70969;BMP280;58630;43.022;25.100;2023-07-09T03:21:31;;;;23.50
70969;BMP280;58630;43.022;25.100;2023-07-09T03:23:57;;;;23.60
70969;BMP280;58630;43.022;25.100;2023-07-09T03:26:23;;;;23.60
70969;BMP280;58630;43.022;25.100;2023-07-09T03:28:50;;;;23.60
70969;BMP280;58630;43.022;25.100;2023-07-09T03:31:16;;;;23.50
70969;BMP280;58630;43.022;25.100;2023-07-09T03:33:42;;;;23.50
70969;BMP280;58630;43.022;25.100;2023-07-09T03:36:07;;;;23.50
70969;BMP280;58630;43.022;25.100;2023-07-09T03:38:33;;;;23.50
70969;BMP280;58630;43.022;25.100;2023-07-09T03:40:58;;;;23.50
70969;BMP280;58630;43.022;25.100;2023-07-09T03:43:24;;;;23.50
70969;BMP280;58630;43.022;25.100;2023-07-09T03:45:50;;;;23.50
70969;BMP280;58630;43.022;25.100;2023-07-09T03:48:16;;;;23.50
70969;BMP280;58630;43.022;25.100;2023-07-09T03:50:43;;;;23.50
70969;BMP280;58630;43.022;25.100;2023-07-09T03:53:09;;;;23.50
70969;BMP280;58630;43.022;25.100;2023-07-09T03:55:34;;;;23.50
70969;BMP280;58630;43.022;25.100;2023-07-09T03:58:00;;;;23.40
70969;BMP280;58630;43.022;25.100;2023-07-09T04:00:28;;;;23.40
70969;BMP280;58630;43.022;25.100;2023-07-09T04:02:53;;;;23.30
70969;BMP280;58630;43.022;25.100;2023-07-09T04:05:20;;;;23.30
70969;BMP280;58630;43.022;25.100;2023-07-09T04:07:46;;;;23.20
70969;BMP280;58630;43.022;25.100;2023-07-09T04:10:11;;;;23.20
70969;BMP280;58630;43.022;25.100;2023-07-09T04:12:37;;;;23.20
70969;BMP280;58630;43.022;25.100;2023-07-09T04:15:03;;;;23.10
70969;BMP280;58630;43.022;25.100;2023-07-09T04:17:28;;;;23.20
70969;BMP280;58630;43.022;25.100;2023-07-09T04:19:54;;;;23.20
70969;BMP280;58630;43.022;25.100;2023-07-09T04:22:19;;;;23.10
70969;BMP280;58630;43.022;25.100;2023-07-09T04:24:46;;;;23.20
70969;BMP280;58630;43.022;25.100;2023-07-09T04:27:12;;;;23.10
70969;BMP280;58630;43.022;25.100;2023-07-09T04:29:39;;;;23.10
70969;BMP280;58630;43.022;25.100;2023-07-09T04:32:08;;;;23.10
70969;BMP280;58630;43.022;25.100;2023-07-09T04:34:36;;;;23.00
70969;BMP280;58630;43.022;25.100;2023-07-09T04:37:05;;;;23.00
70969;BMP280;58630;43.022;25.100;2023-07-09T04:39:31;;;;23.00
70969;BMP280;58630;43.022;25.100;2023-07-09T04:41:57;;;;23.00
70969;BMP280;58630;43.022;25.100;2023-07-09T04:44:22;;;;23.00
70969;BMP280;58630;43.022;25.100;2023-07-09T04:46:48;;;;23.00
70969;BMP280;58630;43.022;25.100;2023-07-09T04:49:14;;;;23.00
70969;BMP280;58630;43.022;25.100;2023-07-09T04:51:40;;;;23.00
70969;BMP280;58630;43.022;25.100;2023-07-09T04:54:05;;;;23.00
70969;BMP280;58630;43.022;25.100;2023-07-09T04:56:31;;;;23.00
70969;BMP280;58630;43.022;25.100;2023-07-09T04:58:57;;;;23.00
70969;BMP280;58630;43.022;25.100;2023-07-09T05:01:22;;;;23.00
70969;BMP280;58630;43.022;25.100;2023-07-09T05:03:48;;;;23.00
70969;BMP280;58630;43.022;25.100;2023-07-09T05:06:14;;;;23.10
70969;BMP280;58630;43.022;25.100;2023-07-09T05:08:40;;;;23.10
70969;BMP280;58630;43.022;25.100;2023-07-09T05:11:06;;;;23.20
70969;BMP280;58630;43.022;25.100;2023-07-09T05:13:32;;;;23.20
70969;BMP280;58630;43.022;25.100;2023-07-09T05:15:57;;;;23.20
70969;BMP280;58630;43.022;25.100;2023-07-09T05:18:23;;;;23.20
70969;BMP280;58630;43.022;25.100;2023-07-09T05:20:49;;;;23.20
70969;BMP280;58630;43.022;25.100;2023-07-09T05:23:15;;;;23.20
70969;BMP280;58630;43.022;25.100;2023-07-09T05:25:40;;;;23.20
70969;BMP280;58630;43.022;25.100;2023-07-09T05:28:06;;;;23.20
70969;BMP280;58630;43.022;25.100;2023-07-09T05:30:31;;;;23.20
70969;BMP280;58630;43.022;25.100;2023-07-09T05:32:57;;;;23.20
70969;BMP280;58630;43.022;25.100;2023-07-09T05:35:23;;;;23.20
70969;BMP280;58630;43.022;25.100;2023-07-09T05:37:50;;;;23.30
70969;BMP280;58630;43.022;25.100;2023-07-09T05:40:16;;;;23.30
70969;BMP280;58630;43.022;25.100;2023-07-09T05:42:42;;;;23.30
70969;BMP280;58630;43.022;25.100;2023-07-09T05:45:07;;;;23.20
70969;BMP280;58630;43.022;25.100;2023-07-09T05:47:33;;;;23.20
70969;BMP280;58630;43.022;25.100;2023-07-09T05:49:58;;;;23.30
70969;BMP280;58630;43.022;25.100;2023-07-09T05:52:24;;;;23.20
70969;BMP280;58630;43.022;25.100;2023-07-09T05:54:50;;;;23.20
70969;BMP280;58630;43.022;25.100;2023-07-09T05:57:16;;;;23.20
70969;BMP280;58630;43.022;25.100;2023-07-09T05:59:42;;;;23.20
70969;BMP280;58630;43.022;25.100;2023-07-09T06:02:11;;;;23.30
70969;BMP280;58630;43.022;25.100;2023-07-09T06:04:36;;;;23.30
70969;BMP280;58630;43.022;25.100;2023-07-09T06:07:02;;;;23.30
70969;BMP280;58630;43.022;25.100;2023-07-09T06:09:29;;;;23.30
70969;BMP280;58630;43.022;25.100;2023-07-09T06:11:55;;;;23.30
70969;BMP280;58630;43.022;25.100;2023-07-09T06:14:20;;;;23.40
70969;BMP280;58630;43.022;25.100;2023-07-09T06:16:46;;;;23.40
70969;BMP280;58630;43.022;25.100;2023-07-09T06:19:11;;;;23.40
70969;BMP280;58630;43.022;25.100;2023-07-09T06:21:38;;;;23.40
70969;BMP280;58630;43.022;25.100;2023-07-09T06:24:03;;;;23.40
70969;BMP280;58630;43.022;25.100;2023-07-09T06:26:29;;;;23.40
70969;BMP280;58630;43.022;25.100;2023-07-09T06:28:55;;;;23.40
70969;BMP280;58630;43.022;25.100;2023-07-09T06:31:20;;;;23.40
70969;BMP280;58630;43.022;25.100;2023-07-09T06:33:47;;;;23.40
70969;BMP280;58630;43.022;25.100;2023-07-09T06:36:12;;;;23.40
70969;BMP280;58630;43.022;25.100;2023-07-09T06:38:38;;;;23.50
70969;BMP280;58630;43.022;25.100;2023-07-09T06:41:03;;;;23.40
70969;BMP280;58630;43.022;25.100;2023-07-09T06:43:30;;;;23.40
70969;BMP280;58630;43.022;25.100;2023-07-09T06:45:57;;;;23.50
70969;BMP280;58630;43.022;25.100;2023-07-09T06:48:24;;;;23.50
70969;BMP280;58630;43.022;25.100;2023-07-09T06:50:50;;;;23.40
70969;BMP280;58630;43.022;25.100;2023-07-09T06:53:15;;;;23.50
70969;BMP280;58630;43.022;25.100;2023-07-09T06:55:41;;;;23.50
70969;BMP280;58630;43.022;25.100;2023-07-09T06:58:07;;;;23.50
70969;BMP280;58630;43.022;25.100;2023-07-09T07:00:33;;;;23.50
70969;BMP280;58630;43.022;25.100;2023-07-09T07:02:59;;;;23.50
70969;BMP280;58630;43.022;25.100;2023-07-09T07:05:25;;;;23.50
70969;BMP280;58630;43.022;25.100;2023-07-09T07:07:51;;;;23.50
70969;BMP280;58630;43.022;25.100;2023-07-09T07:10:18;;;;23.50
70969;BMP280;58630;43.022;25.100;2023-07-09T07:12:45;;;;23.60
70969;BMP280;58630;43.022;25.100;2023-07-09T07:15:11;;;;23.60
70969;BMP280;58630;43.022;25.100;2023-07-09T07:17:38;;;;23.60
70969;BMP280;58630;43.022;25.100;2023-07-09T07:20:04;;;;23.70
70969;BMP280;58630;43.022;25.100;2023-07-09T07:22:30;;;;23.60
70969;BMP280;58630;43.022;25.100;2023-07-09T07:24:56;;;;23.70
70969;BMP280;58630;43.022;25.100;2023-07-09T07:27:22;;;;23.60
70969;BMP280;58630;43.022;25.100;2023-07-09T07:29:47;;;;23.50
70969;BMP280;58630;43.022;25.100;2023-07-09T07:32:13;;;;23.60
70969;BMP280;58630;43.022;25.100;2023-07-09T07:34:38;;;;23.60
70969;BMP280;58630;43.022;25.100;2023-07-09T07:37:04;;;;23.60
70969;BMP280;58630;43.022;25.100;2023-07-09T07:39:29;;;;23.70
70969;BMP280;58630;43.022;25.100;2023-07-09T07:41:55;;;;23.70
70969;BMP280;58630;43.022;25.100;2023-07-09T07:44:21;;;;23.70
70969;BMP280;58630;43.022;25.100;2023-07-09T07:46:47;;;;23.70
70969;BMP280;58630;43.022;25.100;2023-07-09T07:49:12;;;;23.70
70969;BMP280;58630;43.022;25.100;2023-07-09T07:51:38;;;;23.70
70969;BMP280;58630;43.022;25.100;2023-07-09T07:54:04;;;;23.70
70969;BMP280;58630;43.022;25.100;2023-07-09T07:56:29;;;;23.70
70969;BMP280;58630;43.022;25.100;2023-07-09T07:58:55;;;;23.70
70969;BMP280;58630;43.022;25.100;2023-07-09T08:01:21;;;;23.70
70969;BMP280;58630;43.022;25.100;2023-07-09T08:03:46;;;;23.70
70969;BMP280;58630;43.022;25.100;2023-07-09T08:06:12;;;;23.70
70969;BMP280;58630;43.022;25.100;2023-07-09T08:08:37;;;;23.70
70969;BMP280;58630;43.022;25.100;2023-07-09T08:11:04;;;;23.80
70969;BMP280;58630;43.022;25.100;2023-07-09T08:13:33;;;;23.80
70969;BMP280;58630;43.022;25.100;2023-07-09T08:16:00;;;;23.80
70969;BMP280;58630;43.022;25.100;2023-07-09T08:18:25;;;;23.90
70969;BMP280;58630;43.022;25.100;2023-07-09T08:20:51;;;;23.90
70969;BMP280;58630;43.022;25.100;2023-07-09T08:23:16;;;;23.90
70969;BMP280;58630;43.022;25.100;2023-07-09T08:25:42;;;;23.90
70969;BMP280;58630;43.022;25.100;2023-07-09T08:28:08;;;;23.90
70969;BMP280;58630;43.022;25.100;2023-07-09T08:30:33;;;;24.00
70969;BMP280;58630;43.022;25.100;2023-07-09T08:32:59;;;;24.00
70969;BMP280;58630;43.022;25.100;2023-07-09T08:35:25;;;;24.00
70969;BMP280;58630;43.022;25.100;2023-07-09T08:37:51;;;;24.00
70969;BMP280;58630;43.022;25.100;2023-07-09T08:40:16;;;;24.00
70969;BMP280;58630;43.022;25.100;2023-07-09T08:42:43;;;;24.00
70969;BMP280;58630;43.022;25.100;2023-07-09T08:45:28;;;;24.00
70969;BMP280;58630;43.022;25.100;2023-07-09T08:48:00;;;;24.00
70969;BMP280;58630;43.022;25.100;2023-07-09T08:50:38;;;;24.00
70969;BMP280;58630;43.022;25.100;2023-07-09T08:53:05;;;;24.10
70969;BMP280;58630;43.022;25.100;2023-07-09T08:55:31;;;;24.10
70969;BMP280;58630;43.022;25.100;2023-07-09T08:58:20;;;;24.10
70969;BMP280;58630;43.022;25.100;2023-07-09T09:03:28;;;;24.10
70969;BMP280;58630;43.022;25.100;2023-07-09T09:05:56;;;;24.20
70969;BMP280;58630;43.022;25.100;2023-07-09T09:11:01;;;;24.30
70969;BMP280;58630;43.022;25.100;2023-07-09T09:13:30;;;;24.30
70969;BMP280;58630;43.022;25.100;2023-07-09T09:15:56;;;;24.40
70969;BMP280;58630;43.022;25.100;2023-07-09T09:18:28;;;;24.40
70969;BMP280;58630;43.022;25.100;2023-07-09T09:21:00;;;;24.40
70969;BMP280;58630;43.022;25.100;2023-07-09T09:23:36;;;;24.50
70969;BMP280;58630;43.022;25.100;2023-07-09T09:26:03;;;;24.50
70969;BMP280;58630;43.022;25.100;2023-07-09T09:28:34;;;;24.50
70969;BMP280;58630;43.022;25.100;2023-07-09T09:31:00;;;;24.50
70969;BMP280;58630;43.022;25.100;2023-07-09T09:33:26;;;;24.50
70969;BMP280;58630;43.022;25.100;2023-07-09T09:36:02;;;;24.50
70969;BMP280;58630;43.022;25.100;2023-07-09T09:38:29;;;;24.60
70969;BMP280;58630;43.022;25.100;2023-07-09T09:40:59;;;;24.60
70969;BMP280;58630;43.022;25.100;2023-07-09T09:43:31;;;;24.60
70969;BMP280;58630;43.022;25.100;2023-07-09T09:45:57;;;;24.60
70969;BMP280;58630;43.022;25.100;2023-07-09T09:48:28;;;;24.70
70969;BMP280;58630;43.022;25.100;2023-07-09T09:50:54;;;;24.70
70969;BMP280;58630;43.022;25.100;2023-07-09T09:53:23;;;;24.70
70969;BMP280;58630;43.022;25.100;2023-07-09T09:55:49;;;;24.70
70969;BMP280;58630;43.022;25.100;2023-07-09T09:58:17;;;;24.70
70969;BMP280;58630;43.022;25.100;2023-07-09T10:00:47;;;;24.80
70969;BMP280;58630;43.022;25.100;2023-07-09T10:03:13;;;;24.80
70969;BMP280;58630;43.022;25.100;2023-07-09T10:05:41;;;;24.80
70969;BMP280;58630;43.022;25.100;2023-07-09T10:10:57;;;;24.90
70969;BMP280;58630;43.022;25.100;2023-07-09T10:13:28;;;;25.00
70969;BMP280;58630;43.022;25.100;2023-07-09T10:15:59;;;;25.00
70969;BMP280;58630;43.022;25.100;2023-07-09T10:21:20;;;;25.00
70969;BMP280;58630;43.022;25.100;2023-07-09T10:26:27;;;;25.10
70969;BMP280;58630;43.022;25.100;2023-07-09T10:31:36;;;;25.10
70969;BMP280;58630;43.022;25.100;2023-07-09T10:39:37;;;;25.20
70969;BMP280;58630;43.022;25.100;2023-07-09T10:42:04;;;;25.20
70969;BMP280;58630;43.022;25.100;2023-07-09T10:44:34;;;;25.20
70969;BMP280;58630;43.022;25.100;2023-07-09T10:47:02;;;;25.20
70969;BMP280;58630;43.022;25.100;2023-07-09T10:49:31;;;;25.20
70969;BMP280;58630;43.022;25.100;2023-07-09T11:00:30;;;;25.30
70969;BMP280;58630;43.022;25.100;2023-07-09T11:03:03;;;;25.30
70969;BMP280;58630;43.022;25.100;2023-07-09T11:05:29;;;;25.30
70969;BMP280;58630;43.022;25.100;2023-07-09T11:08:00;;;;25.40
70969;BMP280;58630;43.022;25.100;2023-07-09T11:10:29;;;;25.40
70969;BMP280;58630;43.022;25.100;2023-07-09T11:12:57;;;;25.40
70969;BMP280;58630;43.022;25.100;2023-07-09T11:15:31;;;;25.50
70969;BMP280;58630;43.022;25.100;2023-07-09T11:17:58;;;;25.60
70969;BMP280;58630;43.022;25.100;2023-07-09T11:20:25;;;;25.60
70969;BMP280;58630;43.022;25.100;2023-07-09T11:23:02;;;;25.60
70969;BMP280;58630;43.022;25.100;2023-07-09T11:25:45;;;;25.70
70969;BMP280;58630;43.022;25.100;2023-07-09T11:28:11;;;;25.70
70969;BMP280;58630;43.022;25.100;2023-07-09T11:30:50;;;;25.80
70969;BMP280;58630;43.022;25.100;2023-07-09T11:33:17;;;;25.80
70969;BMP280;58630;43.022;25.100;2023-07-09T11:35:50;;;;25.90
70969;BMP280;58630;43.022;25.100;2023-07-09T11:38:17;;;;25.90
70969;BMP280;58630;43.022;25.100;2023-07-09T11:40:48;;;;25.90
70969;BMP280;58630;43.022;25.100;2023-07-09T11:43:33;;;;26.00
70969;BMP280;58630;43.022;25.100;2023-07-09T11:48:52;;;;26.10
70969;BMP280;58630;43.022;25.100;2023-07-09T11:51:21;;;;26.10
70969;BMP280;58630;43.022;25.100;2023-07-09T11:53:52;;;;26.10
70969;BMP280;58630;43.022;25.100;2023-07-09T11:56:18;;;;26.20
70969;BMP280;58630;43.022;25.100;2023-07-09T11:58:47;;;;26.20
70969;BMP280;58630;43.022;25.100;2023-07-09T12:01:14;;;;26.30
70969;BMP280;58630;43.022;25.100;2023-07-09T12:03:42;;;;26.40
70969;BMP280;58630;43.022;25.100;2023-07-09T12:06:19;;;;26.40
70969;BMP280;58630;43.022;25.100;2023-07-09T12:08:46;;;;26.60
70969;BMP280;58630;43.022;25.100;2023-07-09T12:11:25;;;;26.60
70969;BMP280;58630;43.022;25.100;2023-07-09T12:13:51;;;;26.60
70969;BMP280;58630;43.022;25.100;2023-07-09T12:16:26;;;;26.70
70969;BMP280;58630;43.022;25.100;2023-07-09T12:18:52;;;;26.70
70969;BMP280;58630;43.022;25.100;2023-07-09T12:21:18;;;;26.80
70969;BMP280;58630;43.022;25.100;2023-07-09T12:23:44;;;;26.90
70969;BMP280;58630;43.022;25.100;2023-07-09T12:26:11;;;;26.90
70969;BMP280;58630;43.022;25.100;2023-07-09T12:28:38;;;;27.00
70969;BMP280;58630;43.022;25.100;2023-07-09T12:31:03;;;;27.10
70969;BMP280;58630;43.022;25.100;2023-07-09T12:33:29;;;;27.10
70969;BMP280;58630;43.022;25.100;2023-07-09T12:35:58;;;;27.10
70969;BMP280;58630;43.022;25.100;2023-07-09T12:38:24;;;;27.20
70969;BMP280;58630;43.022;25.100;2023-07-09T12:40:51;;;;27.40
70969;BMP280;58630;43.022;25.100;2023-07-09T12:43:22;;;;27.40
70969;BMP280;58630;43.022;25.100;2023-07-09T12:45:48;;;;27.40
70969;BMP280;58630;43.022;25.100;2023-07-09T12:48:14;;;;27.40
70969;BMP280;58630;43.022;25.100;2023-07-09T12:50:39;;;;27.70
70969;BMP280;58630;43.022;25.100;2023-07-09T12:53:18;;;;28.00
70969;BMP280;58630;43.022;25.100;2023-07-09T12:55:46;;;;28.40
70969;BMP280;58630;43.022;25.100;2023-07-09T12:58:20;;;;28.60
70969;BMP280;58630;43.022;25.100;2023-07-09T13:00:50;;;;28.60
70969;BMP280;58630;43.022;25.100;2023-07-09T13:03:18;;;;28.70
70969;BMP280;58630;43.022;25.100;2023-07-09T13:05:56;;;;28.90
70969;BMP280;58630;43.022;25.100;2023-07-09T13:08:23;;;;29.10
70969;BMP280;58630;43.022;25.100;2023-07-09T13:10:49;;;;29.20
70969;BMP280;58630;43.022;25.100;2023-07-09T13:13:18;;;;29.30
70969;BMP280;58630;43.022;25.100;2023-07-09T13:15:47;;;;29.50
70969;BMP280;58630;43.022;25.100;2023-07-09T13:18:14;;;;29.60
70969;BMP280;58630;43.022;25.100;2023-07-09T13:20:41;;;;29.80
70969;BMP280;58630;43.022;25.100;2023-07-09T13:23:11;;;;29.90
70969;BMP280;58630;43.022;25.100;2023-07-09T13:25:40;;;;30.10
70969;BMP280;58630;43.022;25.100;2023-07-09T13:28:23;;;;30.10
70969;BMP280;58630;43.022;25.100;2023-07-09T13:30:52;;;;29.90
70969;BMP280;58630;43.022;25.100;2023-07-09T13:33:18;;;;29.80
70969;BMP280;58630;43.022;25.100;2023-07-09T13:35:45;;;;29.80
70969;BMP280;58630;43.022;25.100;2023-07-09T13:38:14;;;;29.90
70969;BMP280;58630;43.022;25.100;2023-07-09T13:40:46;;;;30.10
70969;BMP280;58630;43.022;25.100;2023-07-09T13:43:12;;;;30.30
70969;BMP280;58630;43.022;25.100;2023-07-09T13:45:39;;;;30.50
70969;BMP280;58630;43.022;25.100;2023-07-09T13:48:07;;;;30.70
70969;BMP280;58630;43.022;25.100;2023-07-09T13:50:33;;;;30.80
70969;BMP280;58630;43.022;25.100;2023-07-09T13:53:00;;;;30.90
70969;BMP280;58630;43.022;25.100;2023-07-09T13:55:25;;;;31.10
70969;BMP280;58630;43.022;25.100;2023-07-09T13:57:51;;;;31.20
70969;BMP280;58630;43.022;25.100;2023-07-09T14:00:18;;;;31.20
70969;BMP280;58630;43.022;25.100;2023-07-09T14:02:44;;;;31.40
70969;BMP280;58630;43.022;25.100;2023-07-09T14:05:11;;;;31.50
70969;BMP280;58630;43.022;25.100;2023-07-09T14:07:38;;;;31.60
70969;BMP280;58630;43.022;25.100;2023-07-09T14:10:05;;;;31.70
70969;BMP280;58630;43.022;25.100;2023-07-09T14:12:31;;;;31.80
70969;BMP280;58630;43.022;25.100;2023-07-09T14:14:58;;;;32.00
70969;BMP280;58630;43.022;25.100;2023-07-09T14:17:24;;;;32.10
70969;BMP280;58630;43.022;25.100;2023-07-09T14:19:51;;;;32.20
70969;BMP280;58630;43.022;25.100;2023-07-09T14:22:27;;;;32.10
70969;BMP280;58630;43.022;25.100;2023-07-09T14:24:55;;;;32.30
70969;BMP280;58630;43.022;25.100;2023-07-09T14:27:20;;;;32.50
70969;BMP280;58630;43.022;25.100;2023-07-09T14:29:46;;;;32.60
70969;BMP280;58630;43.022;25.100;2023-07-09T14:37:35;;;;32.90
70969;BMP280;58630;43.022;25.100;2023-07-09T14:40:01;;;;33.00
70969;BMP280;58630;43.022;25.100;2023-07-09T14:42:26;;;;33.00
70969;BMP280;58630;43.022;25.100;2023-07-09T14:44:52;;;;33.20
70969;BMP280;58630;43.022;25.100;2023-07-09T14:47:18;;;;33.20
70969;BMP280;58630;43.022;25.100;2023-07-09T14:49:44;;;;33.40
70969;BMP280;58630;43.022;25.100;2023-07-09T14:52:19;;;;33.50
70969;BMP280;58630;43.022;25.100;2023-07-09T14:54:47;;;;33.50
70969;BMP280;58630;43.022;25.100;2023-07-09T14:59:43;;;;33.60
70969;BMP280;58630;43.022;25.100;2023-07-09T15:02:20;;;;33.70
70969;BMP280;58630;43.022;25.100;2023-07-09T15:04:46;;;;33.70
70969;BMP280;58630;43.022;25.100;2023-07-09T15:07:11;;;;33.90
70969;BMP280;58630;43.022;25.100;2023-07-09T15:09:37;;;;33.90
70969;BMP280;58630;43.022;25.100;2023-07-09T15:12:03;;;;34.10
70969;BMP280;58630;43.022;25.100;2023-07-09T15:14:29;;;;34.10
70969;BMP280;58630;43.022;25.100;2023-07-09T15:16:54;;;;34.20
70969;BMP280;58630;43.022;25.100;2023-07-09T15:19:21;;;;34.20
70969;BMP280;58630;43.022;25.100;2023-07-09T15:21:47;;;;34.30
70969;BMP280;58630;43.022;25.100;2023-07-09T15:24:17;;;;34.30
70969;BMP280;58630;43.022;25.100;2023-07-09T15:26:50;;;;34.40
70969;BMP280;58630;43.022;25.100;2023-07-09T15:29:17;;;;34.50
70969;BMP280;58630;43.022;25.100;2023-07-09T15:31:43;;;;34.70
70969;BMP280;58630;43.022;25.100;2023-07-09T15:34:09;;;;34.60
70969;BMP280;58630;43.022;25.100;2023-07-09T15:36:34;;;;34.60
70969;BMP280;58630;43.022;25.100;2023-07-09T15:39:00;;;;34.60
70969;BMP280;58630;43.022;25.100;2023-07-09T15:41:25;;;;34.70
70969;BMP280;58630;43.022;25.100;2023-07-09T15:43:51;;;;34.80
70969;BMP280;58630;43.022;25.100;2023-07-09T15:46:20;;;;34.90
70969;BMP280;58630;43.022;25.100;2023-07-09T15:48:46;;;;34.90
70969;BMP280;58630;43.022;25.100;2023-07-09T15:51:12;;;;35.00
70969;BMP280;58630;43.022;25.100;2023-07-09T15:53:37;;;;35.00
70969;BMP280;58630;43.022;25.100;2023-07-09T15:56:06;;;;35.10
70969;BMP280;58630;43.022;25.100;2023-07-09T15:58:38;;;;35.10
70969;BMP280;58630;43.022;25.100;2023-07-09T16:01:04;;;;35.20
70969;BMP280;58630;43.022;25.100;2023-07-09T16:03:31;;;;35.20
70969;BMP280;58630;43.022;25.100;2023-07-09T16:05:57;;;;35.20
70969;BMP280;58630;43.022;25.100;2023-07-09T16:08:22;;;;35.20
70969;BMP280;58630;43.022;25.100;2023-07-09T16:10:48;;;;35.10
70969;BMP280;58630;43.022;25.100;2023-07-09T16:13:20;;;;35.00
70969;BMP280;58630;43.022;25.100;2023-07-09T16:15:46;;;;34.90
70969;BMP280;58630;43.022;25.100;2023-07-09T16:18:12;;;;34.80
70969;BMP280;58630;43.022;25.100;2023-07-09T16:20:37;;;;34.00
70969;BMP280;58630;43.022;25.100;2023-07-09T16:23:03;;;;33.30
70969;BMP280;58630;43.022;25.100;2023-07-09T16:25:31;;;;32.90
70969;BMP280;58630;43.022;25.100;2023-07-09T16:27:57;;;;33.30
70969;BMP280;58630;43.022;25.100;2023-07-09T16:30:24;;;;33.70
70969;BMP280;58630;43.022;25.100;2023-07-09T16:32:50;;;;34.00